Nearby METAR (Airport) Reports

 

KPRN - Greenville, Alabama, USA
Distance from station: WNW 17mi, 28km
Updated: Wed, 23-Oct-2019 8:56pm CDT
Clear
Clear
 Wind from calm
Wind: Calm
Temperature: 52°F , 11°C
Dew Point: 45°F , 7°C
Humidity: 77%
Barometer: 30.16 inHg , 1021.3 hPa
Clouds: Clear
Visibility: 10 miles , 16 km
2019/10/24 01:56 KPRN 240156Z AUTO 00000KT 10SM CLR 11/07 A3016 RMK AO2 SLP211 T01110072
KTOI - Troy, Alabama, USA
Distance from station: ENE 21mi, 34km
Updated: Wed, 23-Oct-2019 9:16pm CDT
unable to load KTOI data RC=
unable to load KTOI data RC=
 
K79J - Andalusia/Opp Ar, Alabama, USA
Distance from station: S 29mi, 47km
Updated: Wed, 23-Oct-2019 8:56pm CDT
Clear
Clear
 Wind from calm
Wind: Calm
Temperature: 55°F , 13°C
Dew Point: 46°F , 8°C
Humidity: 72%
Barometer: 30.16 inHg , 1021.3 hPa
Clouds: Clear
Visibility: 10 miles , 16 km
2019/10/24 01:56 K79J 240156Z AUTO 00000KT 10SM CLR 13/08 A3016 RMK AO2 SLP210 T01280083 $
 
KMGM - Montgomery, Alabama, USA
Distance from station: N 39mi, 63km
Updated: Wed, 23-Oct-2019 8:53pm CDT
Clear
Clear
 Wind from calm
Wind: Calm
Temperature: 52°F , 11°C
Dew Point: 45°F , 7°C
Humidity: 77%
Barometer: 30.17 inHg , 1021.7 hPa
Clouds: Clear
Visibility: 10 miles , 16 km
2019/10/24 01:53 KMGM 240153Z 00000KT 10SM CLR 11/07 A3017 RMK AO2 SLP215 T01060072
KMXF - Maxwell Afb/Mgm, Alabama, USA
Distance from station: N 44mi, 70km
Updated: Wed, 23-Oct-2019 8:56pm CDT
Clear
Clear
 Wind from calm
Wind: Calm
Temperature: 54°F , 12°C
Dew Point: 50°F , 10°C
Humidity: 88%
Barometer: 30.15 inHg , 1021 hPa
Clouds: Clear
Visibility: 10 miles , 16 km
2019/10/24 01:56 KMXF 240156Z AUTO 00000KT 10SM CLR 12/10 A3015 RMK AO2 SLP213 T01190100
KLOR - Lowe Ahp/Ft. Ruc, Alabama, USA
Distance from station: SE 44mi, 71km
Updated: Wed, 23-Oct-2019 8:58pm CDT
Mist, Clear
Mist, Clear
 Wind from calm
Wind: Calm
Temperature: 50°F , 10°C
Dew Point: 48°F , 9°C
Humidity: 94%
Barometer: 30.16 inHg , 1021.3 hPa
Summary: Mist
Clouds: Clear
Visibility: 2 1/4 miles , 3.6 km
2019/10/24 01:58 KLOR 240158Z AUTO 00000KT 2 1/4SM BR CLR 10/09 A3016 RMK AO2 SLP196 T00980085
 
KGZH - Evergreen, Alabama, USA
Distance from station: WSW 46mi, 75km
Updated: Wed, 23-Oct-2019 8:53pm CDT
Clear
Clear
 Wind from calm
Wind: Calm
Temperature: 52°F , 11°C
Dew Point: 46°F , 8°C
Humidity: 82%
Barometer: 30.16 inHg , 1021.3 hPa
Clouds: Clear
Visibility: 10 miles , 16 km
2019/10/24 01:53 KGZH 240153Z AUTO 00000KT 10SM CLR 11/08 A3016 RMK AO2 SLP212 T01110083
K0J4 - Florala Muni, Alabama, USA
Distance from station: S 47mi, 76km
Updated: Wed, 23-Oct-2019 8:58pm CDT
Clear
Clear
 Wind from calm
Wind: Calm
Temperature: 52°F , 11°C
Dew Point: 45°F , 7°C
Humidity: 77%
Barometer: 30.17 inHg , 1021.7 hPa
Clouds: Clear
Visibility: 10 miles , 16 km
2019/10/24 01:58 K0J4 240158Z AUTO 00000KT 10SM CLR 11/07 A3017 RMK AO2 SLP216 T01110067
KOZR - Ozark/Cairns Aaf, Alabama, USA
Distance from station: SE 49mi, 78km
Updated: Wed, 23-Oct-2019 8:56pm CDT
Clear
Clear
 Wind from calm
Wind: Calm
Temperature: 59°F , 15°C
Dew Point: 43°F , 6°C
Humidity: 55%
Barometer: 30.16 inHg , 1021.3 hPa
Clouds: Clear
Visibility: 10 miles , 16 km
2019/10/24 01:56 KOZR 240156Z AUTO 00000KT 10SM CLR 15/06 A3016 RMK AO2 SLP215 T01450058
 
KHEY - Ft Rucker/Hanche, Alabama, USA
Distance from station: ESE 49mi, 79km
Updated: Wed, 23-Oct-2019 8:58pm CDT
Clear
Clear
 Wind from calm
Wind: Calm
Temperature: 54°F , 12°C
Dew Point: 46°F , 8°C
Humidity: 77%
Barometer: 30.15 inHg , 1021 hPa
Clouds: Clear
Visibility: 10 miles , 16 km
2019/10/24 01:58 KHEY 240158Z AUTO 00000KT 10SM CLR 12/08 A3015 RMK AO2 SLP212 T01190082
KDHN - Dothan, Alabama, USA
Distance from station: ESE 61mi, 97km
Updated: Wed, 23-Oct-2019 8:53pm CDT
Clear
Clear
 Wind from calm
Wind: Calm
Temperature: 54°F , 12°C
Dew Point: 48°F , 9°C
Humidity: 82%
Barometer: 30.20 inHg , 1022.7 hPa
Clouds: Clear
Visibility: 10 miles , 16 km
2019/10/24 01:53 KDHN 240153Z AUTO 00000KT 10SM CLR 12/09 A3020 RMK AO2 SLP224 T01170094
KCEW - Crestview, Florida, USA
Distance from station: S 66mi, 107km
Updated: Wed, 23-Oct-2019 8:53pm CDT
Clear
Clear
 Wind from calm
Wind: Calm
Temperature: 50°F , 10°C
Dew Point: 46°F , 8°C
Humidity: 88%
Barometer: 30.16 inHg , 1021.3 hPa
Clouds: Clear
Visibility: 10 miles , 16 km
2019/10/24 01:53 KCEW 240153Z AUTO 00000KT 10SM CLR 10/08 A3016 RMK AO2 SLP211 T01000083
 
KEUF - Eufaula, Alabama, USA
Distance from station: ENE 73mi, 118km
Updated: Mon, 04-Mar-2019 12:58pm CST
NOT Current

 
Barometer: 30.10 inHg , 1019.3 hPa
2019/03/04 18:58 KEUF 041858Z AUTO A3010 RMK AO2 RAEMM TSB02B32 SLPNO PWINO FZRANO TSNO $
KJKA - Gulf Shores, Alabama, USA
Distance from station: SSW 132mi, 212km
Updated: Wed, 23-Oct-2019 8:55pm CDT
Clear
Clear
 Wind from WNW
Wind: WNW 3 mph , 6 km/h
Temperature: 52°F , 11°C
Dew Point: 50°F , 10°C
Humidity: 94%
Barometer: 30.14 inHg , 1020.7 hPa
Clouds: Clear
Visibility: 10 miles , 16 km
2019/10/24 01:55 KJKA 240155Z AUTO 29003KT 10SM CLR 11/10 A3014 RMK AO2 T01120103
KLSF - Ft Benning/Colum, Georgia, USA
Distance from station: SNE 89mi, 143km
Updated: Wed, 23-Oct-2019 8:56pm CDT
Clear
Clear
 Wind from calm
Wind: Calm
Temperature: 50°F , 10°C
Dew Point: 50°F , 10°C
Humidity: 100%
Barometer: 30.17 inHg , 1021.7 hPa
Clouds: Clear
Visibility: 10 miles , 16 km
2019/10/24 01:56 KLSF 240156Z AUTO 00000KT 10SM CLR 10/10 A3017 RMK AO2 SLP222 T01020102
 
KMOB - Mobile/Bates, Alabama, USA
Distance from station: SW 125mi, 202km
Updated: Wed, 23-Oct-2019 8:56pm CDT
Clear
Clear
 Wind from calm
Wind: Calm
Temperature: 54°F , 12°C
Dew Point: 50°F , 10°C
Humidity: 88%
Barometer: 30.15 inHg , 1021 hPa
Clouds: Clear
Visibility: 9 miles , 14 km
2019/10/24 01:56 KMOB 240156Z 00000KT 9SM CLR 12/10 A3015 RMK AO2 SLP209 T01220100 $
KNMM - Meridian Nas, Mississippi, USA
Distance from station: WNW 151mi, 243km
Updated: Wed, 23-Oct-2019 8:56pm CDT
Clear
Clear
 Wind from calm
Wind: Calm
Temperature: 52°F , 11°C
Dew Point: 46°F , 8°C
Humidity: 82%
Barometer: 30.17 inHg , 1021.7 hPa
Clouds: Clear
Visibility: 10 miles , 16 km
2019/10/24 01:56 KNMM 240156Z 00000KT 10SM CLR 11/08 A3017 RMK AO2 SLP228 T01060078
KQHY - Hurlbert (Ft Walton Bch), Florida, USA
Distance from station: S 94mi, 151km
Updated: Thu, 19-Sep-2019 9:56pm CDT
NOT Current
Clear
Clear
 Wind from E
Wind: E 3 mph , 6 km/h
Temperature: 82°F , 28°C
Heat Index: 86°F , 30°C
Dew Point: 72°F , 22°C
Humidity: 70%
Barometer: 30.09 inHg , 1019 hPa
Clouds: Clear
Visibility: 10 miles , 16 km
2019/09/20 02:56 KQHY 200256Z AUTO 10003KT 10SM CLR 28/22 A3009 RMK AO2 SLP196 T02780222 52015
 
KTCL - Tuscaloosa, Alabama, USA
Distance from station: NNW 129mi, 207km
Updated: Wed, 23-Oct-2019 8:53pm CDT
Clear
Clear
 Wind from calm
Wind: Calm
Temperature: 48°F , 9°C
Dew Point: 45°F , 7°C
Humidity: 87%
Barometer: 30.18 inHg , 1022 hPa
Clouds: Clear
Visibility: 10 miles , 16 km
2019/10/24 01:53 KTCL 240153Z AUTO 00000KT 10SM CLR 09/07 A3018 RMK AO2 SLP219 T00940067
KECP - Panama City, Florida, USA
Distance from station: SSE 122mi, 196km
Updated: Wed, 23-Oct-2019 8:53pm CDT
Clear
Clear
 Wind from calm
Wind: Calm
Temperature: 52°F , 11°C
Dew Point: 46°F , 8°C
Humidity: 82%
Barometer: 30.14 inHg , 1020.7 hPa
Clouds: Clear
Visibility: 10 miles , 16 km
2019/10/24 01:53 KECP 240153Z 00000KT 10SM CLR 11/08 A3014 RMK AO2 SLP217 T01060078
KCBM - Columbus Afb, Mississippi, USA
Distance from station: NW 175mi, 282km
Updated: Wed, 23-Oct-2019 8:56pm CDT
Clear
Clear
 Wind from calm
Wind: Calm
Temperature: 46°F , 8°C
Dew Point: 45°F , 7°C
Humidity: 93%
Barometer: 30.16 inHg , 1021.3 hPa
Clouds: Clear
Visibility: 10 miles , 16 km
2019/10/24 01:56 KCBM 240156Z AUTO 00000KT 10SM CLR 08/07 A3016 RMK AO2 SLP217 T00840069 $
 
KBHM - Birmingham, Alabama, USA
Distance from station: N 132mi, 212km
Updated: Wed, 23-Oct-2019 8:53pm CDT
Clear
Clear
 Wind from calm
Wind: Calm
Temperature: 52°F , 11°C
Dew Point: 41°F , 5°C
Humidity: 67%
Barometer: 30.20 inHg , 1022.7 hPa
Clouds: Clear
Visibility: 10 miles , 16 km
2019/10/24 01:53 KBHM 240153Z 00000KT 10SM CLR 11/05 A3020 RMK AO2 SLP224 T01110050
KAAF - Apalachicola, Florida, USA
Distance from station: SSE 156mi, 250km
Updated: Wed, 23-Oct-2019 8:53pm CDT
Clear
Clear
 Wind from NE
Wind: NE 3 mph , 6 km/h
Temperature: 57°F , 14°C
Dew Point: 48°F , 9°C
Humidity: 72%
Barometer: 30.13 inHg , 1020.3 hPa
Clouds: Clear
Visibility: 10 miles , 16 km
2019/10/24 01:53 KAAF 240153Z AUTO 05003KT 10SM CLR 14/09 A3013 RMK AO2 SLP203 T01390094 $
KATL - Atlanta, Georgia, USA
Distance from station: NE 177mi, 287km
Updated: Wed, 23-Oct-2019 8:52pm CDT
Clear
Clear
 Wind from E
Wind: E 7 mph , 11 km/h
Temperature: 59°F , 15°C
Dew Point: 37°F , 3°C
Humidity: 45%
Barometer: 30.20 inHg , 1022.7 hPa
Clouds: Clear
Visibility: 10 miles , 16 km
2019/10/24 01:52 KATL 240152Z 09006KT 10SM CLR 15/03 A3020 RMK AO2 SLP225 T01500033
 
KGPT - Gulfport, Mississippi, USA
Distance from station: SW 192mi, 309km
Updated: Wed, 23-Oct-2019 8:53pm CDT
Clear
Clear
 Wind from calm
Wind: Calm
Temperature: 55°F , 13°C
Dew Point: 48°F , 9°C
Humidity: 77%
Barometer: 30.14 inHg , 1020.7 hPa
Clouds: Clear
Visibility: 10 miles , 16 km
2019/10/24 01:53 KGPT 240153Z 00000KT 10SM CLR 13/09 A3014 RMK AO2 SLP205 T01330094
KNEW - New Orleans/Lake, Louisiana, USA
Distance from station: SW 255mi, 410km
Updated: Wed, 23-Oct-2019 8:53pm CDT
Clear
Clear
 Wind from SE
Wind: SE 6 mph , 9 km/h
Temperature: 63°F , 17°C
Dew Point: 50°F , 10°C
Humidity: 64%
Barometer: 30.14 inHg , 1020.7 hPa
Clouds: Clear
Visibility: 10 miles , 16 km
2019/10/24 01:53 KNEW 240153Z AUTO 13005KT 10SM CLR 17/10 A3014 RMK AO2 SLP198 T01720100
KP92 - Salt Point, Louisiana, USA
Distance from station: SW 347mi, 559km
Updated: Wed, 23-Oct-2019 8:53pm CDT

 Wind from ESE
Wind: ESE 5 mph , 7 km/h
Temperature: 63°F , 17°C
Dew Point: 52°F , 11°C
Humidity: 68%
Barometer: 30.11 inHg , 1019.6 hPa
2019/10/24 01:53 KP92 240153Z AUTO 12004KT 17/11 A3011 RMK AO1 SLP196 T01670106